Time;durP1;ratioP1;P1;durP2;ratioP2;P2;SDS_P1;SDS_P2;PMS_P1;PMS_P2;Temp;Humidity;BMP_temperature;BMP_pressure;BME280_temperature;BME280_humidity;BME280_pressure;Samples;Min_cycle;Max_cycle;Signal;HPM_P1;HPM_P2
2022/08/18 00:00:43;;;;;;;7.40;6.67;;;;;;;;;;5027341;28;20555;-77
2022/08/18 00:03:10;;;;;;;6.80;6.20;;;;;;;;;;5028476;28;20695;-77
2022/08/18 00:05:36;;;;;;;7.23;6.53;;;;;;;;;;5027374;28;20179;-78
2022/08/18 00:08:03;;;;;;;8.03;6.47;;;;;;;;;;5012835;28;20241;-77
2022/08/18 00:10:30;;;;;;;7.80;7.00;;;;;;;;;;5030694;28;20179;-78
2022/08/18 00:12:56;;;;;;;8.40;6.40;;;;;;;;;;5028277;28;20202;-78
2022/08/18 00:15:22;;;;;;;7.47;6.47;;;;;;;;;;5011310;28;20268;-78
2022/08/18 00:17:48;;;;;;;7.27;6.67;;;;;;;;;;5029692;28;20174;-78
2022/08/18 00:20:20;;;;;;;7.00;6.27;;;;;;;;;;5030611;28;20182;-78
2022/08/18 00:22:47;;;;;;;7.30;6.60;;;;;;;;;;5001633;28;20683;-78
2022/08/18 00:25:15;;;;;;;7.60;6.23;;;;;;;;;;5018490;28;20223;-78
2022/08/18 00:27:41;;;;;;;6.93;6.20;;;;;;;;;;5035061;28;20691;-77
2022/08/18 00:30:10;;;;;;;6.40;5.73;;;;;;;;;;5035746;28;20181;-77
2022/08/18 00:32:37;;;;;;;8.57;5.77;;;;;;;;;;5035641;28;20622;-78
2022/08/18 00:35:12;;;;;;;7.43;5.50;;;;;;;;;;5036334;28;20217;-77
2022/08/18 00:37:39;;;;;;;6.20;5.70;;;;;;;;;;5017933;28;20667;-78
2022/08/18 00:40:06;;;;;;;6.10;5.50;;;;;;;;;;5030839;28;20182;-78
2022/08/18 00:42:32;;;;;;;7.30;5.83;;;;;;;;;;5028733;28;20642;-77
2022/08/18 00:45:00;;;;;;;6.10;5.50;;;;;;;;;;5010694;28;20187;-78
2022/08/18 00:47:28;;;;;;;6.17;5.57;;;;;;;;;;5034266;28;20206;-78
2022/08/18 00:49:54;;;;;;;5.70;5.20;;;;;;;;;;5034332;28;20564;-77
2022/08/18 00:52:22;;;;;;;6.73;5.27;;;;;;;;;;5032804;28;20214;-77
2022/08/18 00:54:48;;;;;;;5.60;5.10;;;;;;;;;;5030994;28;20190;-78
2022/08/18 00:57:15;;;;;;;6.47;5.53;;;;;;;;;;5033916;28;20653;-78
2022/08/18 00:59:54;;;;;;;5.43;5.00;;;;;;;;;;5022956;28;20702;-78
2022/08/18 01:02:23;;;;;;;5.73;5.07;;;;;;;;;;5033567;28;20209;-78
2022/08/18 01:04:52;;;;;;;5.10;4.70;;;;;;;;;;5034240;28;20178;-77
2022/08/18 01:07:28;;;;;;;6.43;4.70;;;;;;;;;;5025688;28;20221;-77
2022/08/18 01:09:57;;;;;;;5.67;5.13;;;;;;;;;;5033989;28;20265;-78
2022/08/18 01:12:23;;;;;;;5.87;4.70;;;;;;;;;;5032317;28;20195;-78
2022/08/18 01:14:49;;;;;;;5.47;4.97;;;;;;;;;;5015708;28;20186;-78
2022/08/18 01:22:48;;;;;;;5.07;4.57;;;;;;;;;;5031892;28;20198;-77
2022/08/18 01:28:02;;;;;;;5.43;4.93;;;;;;;;;;5011799;28;20210;-77
2022/08/18 01:30:29;;;;;;;5.83;4.57;;;;;;;;;;5014474;28;20225;-77
2022/08/18 01:32:57;;;;;;;5.20;4.70;;;;;;;;;;5029272;28;20261;-77
2022/08/18 01:35:25;;;;;;;7.60;5.30;;;;;;;;;;5027314;28;20295;-77
2022/08/18 01:37:52;;;;;;;5.20;4.77;;;;;;;;;;5027570;28;20182;-78
2022/08/18 01:40:22;;;;;;;5.47;4.70;;;;;;;;;;5030097;28;20178;-77
2022/08/18 01:42:49;;;;;;;6.20;4.47;;;;;;;;;;5023232;28;20210;-78
2022/08/18 01:45:16;;;;;;;5.83;4.83;;;;;;;;;;5035521;28;20784;-78
2022/08/18 01:47:44;;;;;;;5.20;4.70;;;;;;;;;;4982732;28;20210;-78
2022/08/18 01:50:12;;;;;;;5.47;4.97;;;;;;;;;;4994786;28;20222;-77
2022/08/18 01:52:38;;;;;;;5.00;4.60;;;;;;;;;;5029666;28;20253;-78
2022/08/18 01:55:06;;;;;;;6.83;4.70;;;;;;;;;;5031702;28;20239;-77
2022/08/18 01:57:33;;;;;;;5.47;4.57;;;;;;;;;;5030300;28;20221;-78
2022/08/18 01:59:59;;;;;;;6.20;4.73;;;;;;;;;;5015512;28;20655;-78
2022/08/18 02:02:27;;;;;;;5.23;4.80;;;;;;;;;;5031179;28;20297;-78
2022/08/18 02:04:59;;;;;;;6.20;4.97;;;;;;;;;;5026787;28;20183;-78
2022/08/18 02:07:31;;;;;;;5.40;4.90;;;;;;;;;;5011934;28;20210;-78
2022/08/18 02:09:57;;;;;;;5.70;4.80;;;;;;;;;;5032446;28;20179;-78
2022/08/18 02:12:23;;;;;;;5.20;4.70;;;;;;;;;;5013037;28;20203;-78
2022/08/18 02:14:51;;;;;;;6.13;4.93;;;;;;;;;;5014920;28;20179;-78
2022/08/18 02:17:18;;;;;;;5.93;5.43;;;;;;;;;;5031475;28;20241;-78
2022/08/18 02:19:45;;;;;;;5.20;4.77;;;;;;;;;;5013712;28;20186;-78
2022/08/18 02:22:13;;;;;;;5.20;4.70;;;;;;;;;;5023781;28;20244;-78
2022/08/18 02:24:40;;;;;;;5.57;5.07;;;;;;;;;;5030835;28;20187;-76
2022/08/18 02:27:07;;;;;;;5.17;4.67;;;;;;;;;;5028088;28;20243;-77
2022/08/18 02:29:34;;;;;;;5.40;4.90;;;;;;;;;;5014192;28;20269;-77
2022/08/18 02:32:00;;;;;;;5.17;4.67;;;;;;;;;;5029663;28;20244;-78
2022/08/18 02:34:26;;;;;;;5.37;4.63;;;;;;;;;;5030556;28;20285;-77
2022/08/18 02:36:53;;;;;;;5.00;4.60;;;;;;;;;;5031800;28;20678;-78
2022/08/18 02:39:19;;;;;;;5.43;4.93;;;;;;;;;;5030292;28;20209;-78
2022/08/18 02:41:45;;;;;;;5.10;4.63;;;;;;;;;;5025197;28;20210;-78
2022/08/18 02:44:11;;;;;;;5.50;5.00;;;;;;;;;;5012828;28;20274;-78
2022/08/18 02:46:37;;;;;;;5.17;4.67;;;;;;;;;;5030780;28;20305;-77
2022/08/18 02:49:06;;;;;;;5.73;4.80;;;;;;;;;;5031853;28;20233;-76
2022/08/18 02:51:33;;;;;;;5.30;4.83;;;;;;;;;;5013360;28;20202;-77
2022/08/18 02:53:59;;;;;;;5.83;5.30;;;;;;;;;;5031721;28;20186;-78
2022/08/18 02:56:26;;;;;;;5.10;4.60;;;;;;;;;;5020996;28;20188;-78
2022/08/18 02:58:54;;;;;;;5.17;4.63;;;;;;;;;;5028255;28;20174;-78
2022/08/18 03:01:21;;;;;;;5.07;4.67;;;;;;;;;;5006416;28;20296;-77
2022/08/18 03:03:48;;;;;;;5.40;4.90;;;;;;;;;;5013938;28;20201;-78
2022/08/18 03:06:15;;;;;;;4.90;4.50;;;;;;;;;;5032511;28;20179;-77
2022/08/18 03:08:41;;;;;;;5.53;4.70;;;;;;;;;;5032573;28;20194;-78
2022/08/18 03:11:08;;;;;;;5.43;4.90;;;;;;;;;;5024496;28;20675;-77
2022/08/18 03:13:34;;;;;;;5.17;4.73;;;;;;;;;;5029693;28;20279;-78
2022/08/18 03:16:00;;;;;;;4.70;4.30;;;;;;;;;;5030036;28;20186;-78
2022/08/18 03:18:26;;;;;;;4.80;4.40;;;;;;;;;;5032076;28;20588;-78
2022/08/18 03:20:52;;;;;;;4.87;4.47;;;;;;;;;;5024589;28;20182;-77
2022/08/18 03:23:19;;;;;;;5.27;4.87;;;;;;;;;;5030683;28;20851;-77
2022/08/18 03:25:46;;;;;;;4.80;4.40;;;;;;;;;;5030310;28;20265;-78
2022/08/18 03:28:13;;;;;;;5.10;4.60;;;;;;;;;;5030131;28;20214;-77
2022/08/18 03:30:39;;;;;;;5.00;4.50;;;;;;;;;;5010385;28;20184;-78
2022/08/18 03:33:05;;;;;;;4.90;4.50;;;;;;;;;;5028088;28;20206;-78
2022/08/18 03:35:33;;;;;;;5.20;4.80;;;;;;;;;;5020409;28;21119;-77
2022/08/18 03:37:59;;;;;;;5.47;4.47;;;;;;;;;;5027469;28;20181;-78
2022/08/18 03:40:25;;;;;;;4.80;4.40;;;;;;;;;;5021373;28;20179;-75
2022/08/18 03:42:52;;;;;;;4.90;4.50;;;;;;;;;;5029815;28;20234;-76
2022/08/18 03:45:18;;;;;;;4.87;4.37;;;;;;;;;;5027685;28;20183;-76
2022/08/18 03:47:44;;;;;;;4.90;4.50;;;;;;;;;;5003254;28;20702;-78
2022/08/18 03:50:11;;;;;;;5.47;4.90;;;;;;;;;;5013596;28;20698;-77
2022/08/18 03:52:38;;;;;;;6.27;4.73;;;;;;;;;;5030888;28;20305;-77
2022/08/18 03:55:09;;;;;;;4.83;4.43;;;;;;;;;;5024713;28;20270;-78
2022/08/18 03:57:35;;;;;;;4.90;4.50;;;;;;;;;;5030508;28;20193;-78
2022/08/18 04:00:01;;;;;;;4.80;4.40;;;;;;;;;;5028522;28;20186;-77
2022/08/18 04:02:31;;;;;;;4.30;3.90;;;;;;;;;;5026225;28;20255;-78
2022/08/18 04:04:57;;;;;;;5.00;4.50;;;;;;;;;;5005713;28;20190;-77
2022/08/18 04:07:23;;;;;;;4.73;4.33;;;;;;;;;;5022855;28;20246;-76
2022/08/18 04:09:50;;;;;;;5.10;4.60;;;;;;;;;;5026973;28;20178;-78
2022/08/18 04:12:16;;;;;;;4.43;4.03;;;;;;;;;;5030002;28;20213;-78
2022/08/18 04:14:45;;;;;;;6.87;4.27;;;;;;;;;;5012761;28;20190;-78
2022/08/18 04:17:11;;;;;;;4.60;4.20;;;;;;;;;;5031561;28;20186;-78
2022/08/18 04:19:37;;;;;;;5.23;4.70;;;;;;;;;;5026398;28;20178;-77
2022/08/18 04:22:04;;;;;;;4.83;4.43;;;;;;;;;;5030583;28;20240;-77
2022/08/18 04:24:30;;;;;;;4.80;4.40;;;;;;;;;;5026561;28;20217;-78
2022/08/18 04:26:58;;;;;;;4.97;4.53;;;;;;;;;;5025034;28;20225;-77
2022/08/18 04:29:24;;;;;;;4.83;4.20;;;;;;;;;;5011083;28;20178;-78
2022/08/18 04:31:50;;;;;;;5.10;4.70;;;;;;;;;;5029930;28;20195;-78
2022/08/18 04:34:19;;;;;;;5.50;4.87;;;;;;;;;;5029705;28;20185;-76
2022/08/18 04:36:45;;;;;;;5.90;4.83;;;;;;;;;;5022634;28;20541;-78
2022/08/18 04:39:12;;;;;;;5.33;4.83;;;;;;;;;;5029357;28;20603;-78
2022/08/18 04:41:38;;;;;;;5.50;4.93;;;;;;;;;;5029445;28;20214;-77
2022/08/18 04:44:07;;;;;;;5.80;5.20;;;;;;;;;;5029528;28;20226;-77
2022/08/18 04:46:38;;;;;;;5.20;4.80;;;;;;;;;;5026964;28;22074;-77
2022/08/18 04:49:05;;;;;;;5.03;4.63;;;;;;;;;;5020465;28;20198;-78
2022/08/18 04:51:31;;;;;;;5.27;4.87;;;;;;;;;;5029586;28;20305;-77
2022/08/18 04:53:59;;;;;;;5.53;5.03;;;;;;;;;;5024314;28;20548;-78
2022/08/18 04:56:27;;;;;;;5.53;5.03;;;;;;;;;;5030506;28;20178;-78
2022/08/18 04:58:54;;;;;;;6.50;5.10;;;;;;;;;;5028023;28;20179;-78
2022/08/18 05:01:21;;;;;;;5.50;5.00;;;;;;;;;;5028608;28;20770;-77
2022/08/18 05:03:49;;;;;;;5.83;5.33;;;;;;;;;;5027616;28;20183;-78
2022/08/18 05:06:15;;;;;;;5.70;4.90;;;;;;;;;;5027789;28;20179;-77
2022/08/18 05:08:41;;;;;;;5.03;4.63;;;;;;;;;;5027809;28;20182;-77
2022/08/18 05:11:08;;;;;;;5.23;4.73;;;;;;;;;;5030303;28;20183;-77
2022/08/18 05:13:34;;;;;;;5.87;5.30;;;;;;;;;;5029381;28;20244;-78
2022/08/18 05:16:03;;;;;;;5.73;5.27;;;;;;;;;;5031111;28;20281;-78
2022/08/18 05:18:30;;;;;;;5.93;5.40;;;;;;;;;;5031326;28;20211;-78
2022/08/18 05:20:56;;;;;;;6.27;5.27;;;;;;;;;;5031243;28;20270;-77
2022/08/18 05:23:23;;;;;;;6.00;5.07;;;;;;;;;;5031288;28;20699;-80
2022/08/18 05:25:49;;;;;;;5.77;5.17;;;;;;;;;;5032619;28;20194;-70
2022/08/18 05:28:15;;;;;;;6.13;5.40;;;;;;;;;;5028875;28;20214;-74
2022/08/18 05:30:42;;;;;;;5.90;5.30;;;;;;;;;;5011564;28;20275;-75
2022/08/18 05:33:11;;;;;;;6.10;5.50;;;;;;;;;;5019190;28;20210;-75
2022/08/18 05:35:42;;;;;;;5.63;5.13;;;;;;;;;;5030534;28;20241;-70
2022/08/18 05:38:25;;;;;;;6.17;4.93;;;;;;;;;;5029406;28;20178;-74
2022/08/18 05:41:04;;;;;;;5.80;5.30;;;;;;;;;;5025731;28;20178;-75
2022/08/18 05:43:31;;;;;;;6.63;5.70;;;;;;;;;;5029417;28;20193;-72
2022/08/18 05:45:59;;;;;;;5.90;5.40;;;;;;;;;;5031052;28;20178;-73
2022/08/18 05:48:25;;;;;;;5.53;5.13;;;;;;;;;;5033178;28;20217;-76
2022/08/18 05:50:51;;;;;;;6.27;5.67;;;;;;;;;;5025416;28;20179;-74
2022/08/18 05:53:18;;;;;;;6.93;5.50;;;;;;;;;;5028982;28;20233;-76
2022/08/18 05:58:31;;;;;;;6.00;5.50;;;;;;;;;;5026514;28;20183;-75
2022/08/18 06:01:01;;;;;;;6.43;5.83;;;;;;;;;;5027090;28;20187;-75
2022/08/18 06:03:40;;;;;;;6.67;5.63;;;;;;;;;;5014430;28;20205;-75
2022/08/18 06:06:14;;;;;;;6.10;5.50;;;;;;;;;;5031234;28;20293;-75
2022/08/18 06:08:44;;;;;;;6.27;5.10;;;;;;;;;;5012554;28;20315;-74
2022/08/18 06:11:10;;;;;;;6.90;5.50;;;;;;;;;;5030463;28;20233;-74
2022/08/18 06:13:38;;;;;;;5.70;5.20;;;;;;;;;;5023238;28;20284;-72
2022/08/18 06:16:18;;;;;;;6.00;5.40;;;;;;;;;;5023929;28;20562;-76
2022/08/18 06:19:00;;;;;;;6.10;5.50;;;;;;;;;;5010728;28;20197;-73
2022/08/18 06:21:33;;;;;;;6.10;5.60;;;;;;;;;;5029496;28;20210;-76
2022/08/18 06:23:59;;;;;;;6.40;5.80;;;;;;;;;;5030472;28;20182;-74
2022/08/18 06:26:39;;;;;;;6.30;5.80;;;;;;;;;;5014521;28;20178;-75
2022/08/18 06:29:11;;;;;;;8.00;5.93;;;;;;;;;;5028955;28;20190;-75
2022/08/18 06:31:56;;;;;;;7.07;6.00;;;;;;;;;;5013202;28;20671;-73
2022/08/18 06:34:39;;;;;;;6.17;5.63;;;;;;;;;;5027846;28;20534;-81
2022/08/18 06:37:23;;;;;;;6.93;5.63;;;;;;;;;;5030748;28;20205;-74
2022/08/18 06:39:50;;;;;;;7.33;5.77;;;;;;;;;;5030820;28;20305;-73
2022/08/18 06:42:20;;;;;;;6.90;6.20;;;;;;;;;;5024027;28;20298;-72
2022/08/18 06:44:51;;;;;;;6.80;6.00;;;;;;;;;;5024886;28;20715;-74
2022/08/18 06:47:34;;;;;;;6.37;5.77;;;;;;;;;;5026598;28;20206;-74
2022/08/18 06:50:04;;;;;;;6.60;6.00;;;;;;;;;;5024623;28;20198;-74
2022/08/18 06:52:50;;;;;;;6.37;5.83;;;;;;;;;;5028285;28;20691;-74
2022/08/18 06:55:18;;;;;;;7.40;6.17;;;;;;;;;;5027039;28;20629;-74
2022/08/18 06:57:56;;;;;;;6.60;5.90;;;;;;;;;;5014587;28;20190;-75
2022/08/18 07:00:27;;;;;;;6.17;5.67;;;;;;;;;;5022829;28;20270;-73
2022/08/18 07:03:01;;;;;;;6.70;6.07;;;;;;;;;;5027873;28;20222;-75
2022/08/18 07:05:32;;;;;;;6.87;5.97;;;;;;;;;;5022736;28;20186;-75
2022/08/18 07:08:04;;;;;;;7.03;6.17;;;;;;;;;;5007088;28;20217;-76
2022/08/18 07:10:33;;;;;;;7.00;6.37;;;;;;;;;;5027030;28;20182;-76
2022/08/18 07:13:07;;;;;;;7.77;6.17;;;;;;;;;;5025775;28;20202;-75
2022/08/18 07:15:33;;;;;;;8.13;6.47;;;;;;;;;;5026535;28;20185;-73
2022/08/18 07:18:05;;;;;;;6.33;5.73;;;;;;;;;;5026396;28;20682;-73
2022/08/18 07:20:40;;;;;;;6.67;5.80;;;;;;;;;;5022712;28;20652;-73
2022/08/18 07:23:07;;;;;;;6.53;5.93;;;;;;;;;;5015863;28;20684;-73
2022/08/18 07:25:44;;;;;;;7.30;6.60;;;;;;;;;;5026402;28;20179;-73
2022/08/18 07:28:27;;;;;;;6.37;5.80;;;;;;;;;;5022835;28;20221;-72
2022/08/18 07:30:53;;;;;;;7.43;6.40;;;;;;;;;;5024393;28;20501;-72
2022/08/18 07:33:25;;;;;;;7.00;6.40;;;;;;;;;;5024185;28;20245;-72
2022/08/18 07:35:55;;;;;;;6.47;5.97;;;;;;;;;;5023387;28;20944;-73
2022/08/18 07:38:25;;;;;;;7.60;6.40;;;;;;;;;;5025647;28;20303;-76
2022/08/18 07:40:55;;;;;;;6.80;6.20;;;;;;;;;;5026660;28;20198;-75
2022/08/18 07:43:27;;;;;;;7.23;6.53;;;;;;;;;;5026526;28;20222;-74
2022/08/18 07:45:56;;;;;;;7.70;7.00;;;;;;;;;;5026460;28;20232;-74
2022/08/18 07:48:27;;;;;;;7.00;6.40;;;;;;;;;;5027653;28;20699;-74
2022/08/18 07:51:03;;;;;;;7.10;6.40;;;;;;;;;;5027009;28;20262;-74
2022/08/18 07:53:35;;;;;;;9.63;7.10;;;;;;;;;;5031114;28;20209;-74
2022/08/18 07:56:04;;;;;;;7.57;6.63;;;;;;;;;;5028455;28;20190;-74
2022/08/18 07:58:36;;;;;;;8.20;7.40;;;;;;;;;;5026143;28;20213;-74
2022/08/18 08:01:14;;;;;;;7.30;6.60;;;;;;;;;;5024490;28;20190;-74
2022/08/18 08:03:46;;;;;;;8.43;7.63;;;;;;;;;;5019697;28;20188;-74
2022/08/18 08:06:33;;;;;;;7.47;6.73;;;;;;;;;;5025060;28;20239;-74
2022/08/18 08:09:02;;;;;;;7.97;7.10;;;;;;;;;;5024830;28;20186;-74
2022/08/18 08:11:43;;;;;;;7.77;6.97;;;;;;;;;;5019468;28;20289;-74
2022/08/18 08:14:17;;;;;;;7.73;7.00;;;;;;;;;;5023545;28;20174;-74
2022/08/18 08:16:48;;;;;;;9.20;6.67;;;;;;;;;;5005136;28;20189;-74
2022/08/18 08:19:21;;;;;;;8.47;7.27;;;;;;;;;;5021546;28;20198;-74
2022/08/18 08:22:08;;;;;;;7.83;7.03;;;;;;;;;;5022639;28;20221;-74
2022/08/18 08:24:56;;;;;;;7.23;6.53;;;;;;;;;;5026664;28;20178;-74
2022/08/18 08:27:45;;;;;;;7.73;7.03;;;;;;;;;;5023361;28;20233;-73
2022/08/18 08:30:17;;;;;;;6.97;6.30;;;;;;;;;;5001387;28;20198;-74
2022/08/18 08:33:02;;;;;;;8.97;7.17;;;;;;;;;;5024204;28;20206;-74
2022/08/18 08:35:48;;;;;;;7.90;7.20;;;;;;;;;;5017144;28;20181;-74
2022/08/18 08:38:16;;;;;;;8.17;7.27;;;;;;;;;;5026670;28;20210;-74
2022/08/18 08:40:53;;;;;;;8.00;7.27;;;;;;;;;;5021628;28;20196;-74
2022/08/18 08:43:25;;;;;;;8.30;7.60;;;;;;;;;;5021362;28;20230;-74
2022/08/18 08:46:00;;;;;;;8.40;7.60;;;;;;;;;;5026033;28;20186;-74
2022/08/18 08:48:27;;;;;;;8.60;7.60;;;;;;;;;;5027350;28;21887;-74
2022/08/18 08:51:16;;;;;;;9.33;7.90;;;;;;;;;;5024239;28;20325;-74
2022/08/18 08:54:01;;;;;;;8.33;7.53;;;;;;;;;;5022279;28;20206;-76
2022/08/18 08:56:33;;;;;;;7.70;7.00;;;;;;;;;;5028542;28;20641;-74
2022/08/18 08:59:05;;;;;;;9.00;7.60;;;;;;;;;;5031027;28;20667;-74
2022/08/18 09:01:43;;;;;;;8.53;7.70;;;;;;;;;;5028552;28;20206;-74
2022/08/18 09:04:13;;;;;;;7.40;6.70;;;;;;;;;;5029688;28;20187;-76
2022/08/18 09:06:42;;;;;;;8.73;7.70;;;;;;;;;;5026437;28;20179;-74
2022/08/18 09:09:16;;;;;;;7.97;7.17;;;;;;;;;;5022445;28;20945;-74
2022/08/18 09:11:51;;;;;;;9.20;8.40;;;;;;;;;;5027204;28;20212;-74
2022/08/18 09:14:30;;;;;;;8.93;7.20;;;;;;;;;;5025264;28;20321;-74
2022/08/18 09:17:16;;;;;;;8.00;7.20;;;;;;;;;;5028659;28;20191;-74
2022/08/18 09:20:06;;;;;;;9.50;8.60;;;;;;;;;;5029296;28;20186;-74
2022/08/18 09:22:32;;;;;;;10.13;9.13;;;;;;;;;;5028989;28;20288;-75
2022/08/18 09:24:58;;;;;;;10.60;9.50;;;;;;;;;;5030910;28;20756;-74
2022/08/18 09:27:30;;;;;;;9.43;8.33;;;;;;;;;;5030974;28;20198;-74
2022/08/18 09:29:58;;;;;;;9.27;8.07;;;;;;;;;;5026699;28;20184;-74
2022/08/18 09:32:25;;;;;;;10.13;9.00;;;;;;;;;;5026940;28;20214;-74
2022/08/18 09:34:57;;;;;;;9.70;8.70;;;;;;;;;;4991987;28;20187;-74
2022/08/18 09:37:26;;;;;;;9.87;8.83;;;;;;;;;;5029202;28;20256;-75
2022/08/18 09:42:54;;;;;;;9.37;8.50;;;;;;;;;;5011226;28;20214;-74
2022/08/18 09:45:30;;;;;;;11.40;9.40;;;;;;;;;;5025054;28;20199;-74
2022/08/18 09:48:00;;;;;;;11.10;9.93;;;;;;;;;;5028171;28;20691;-74
2022/08/18 09:50:27;;;;;;;11.73;9.77;;;;;;;;;;5017940;28;20240;-74
2022/08/18 09:52:57;;;;;;;10.53;9.43;;;;;;;;;;5029034;28;20218;-74
2022/08/18 09:55:23;;;;;;;10.77;9.50;;;;;;;;;;5026748;28;20202;-74
2022/08/18 09:58:09;;;;;;;12.20;9.67;;;;;;;;;;5010991;28;20182;-74
2022/08/18 10:00:35;;;;;;;12.30;10.47;;;;;;;;;;5025193;28;20285;-74
2022/08/18 10:03:04;;;;;;;10.43;9.33;;;;;;;;;;5027885;28;21691;-74
2022/08/18 10:05:31;;;;;;;11.33;10.23;;;;;;;;;;5023683;28;20187;-74
2022/08/18 10:08:04;;;;;;;11.73;10.53;;;;;;;;;;5023743;28;20257;-74
2022/08/18 10:10:38;;;;;;;12.87;11.27;;;;;;;;;;5023710;28;20249;-74
2022/08/18 10:13:25;;;;;;;10.83;9.70;;;;;;;;;;5015620;28;20210;-75
2022/08/18 10:16:14;;;;;;;11.43;10.23;;;;;;;;;;5027229;28;20195;-74
2022/08/18 10:18:59;;;;;;;11.33;10.13;;;;;;;;;;5025128;28;20322;-74
2022/08/18 10:21:27;;;;;;;13.30;11.90;;;;;;;;;;5028295;28;20206;-74
2022/08/18 10:23:57;;;;;;;12.10;10.90;;;;;;;;;;5028555;28;20198;-74
2022/08/18 10:26:29;;;;;;;12.93;11.60;;;;;;;;;;5031139;28;20197;-74
2022/08/18 10:29:10;;;;;;;15.70;12.03;;;;;;;;;;5025399;28;20241;-76
2022/08/18 10:31:58;;;;;;;12.10;10.87;;;;;;;;;;5007492;28;21352;-77
2022/08/18 10:34:24;;;;;;;11.57;10.57;;;;;;;;;;5009885;28;20195;-75
2022/08/18 10:36:52;;;;;;;12.10;10.20;;;;;;;;;;5028543;28;20278;-74
2022/08/18 10:39:21;;;;;;;12.80;11.60;;;;;;;;;;5023675;28;20182;-75
2022/08/18 10:41:56;;;;;;;11.03;10.03;;;;;;;;;;5024587;28;20288;-75
2022/08/18 10:44:23;;;;;;;11.60;10.50;;;;;;;;;;5023545;28;20268;-73
2022/08/18 10:46:50;;;;;;;12.20;11.03;;;;;;;;;;5013331;28;20242;-78
2022/08/18 10:49:24;;;;;;;12.47;11.10;;;;;;;;;;5026078;28;20666;-75
2022/08/18 10:52:00;;;;;;;13.13;11.93;;;;;;;;;;5026545;28;20222;-74
2022/08/18 10:54:32;;;;;;;11.73;10.53;;;;;;;;;;5006893;28;20210;-74
2022/08/18 10:57:18;;;;;;;11.60;10.50;;;;;;;;;;5023862;28;20212;-76
2022/08/18 10:59:51;;;;;;;11.23;10.10;;;;;;;;;;5025965;28;20182;-73
2022/08/18 11:02:17;;;;;;;12.13;10.93;;;;;;;;;;5027237;28;20305;-73
2022/08/18 11:04:46;;;;;;;11.10;10.00;;;;;;;;;;5028720;28;20187;-74
2022/08/18 11:07:25;;;;;;;10.90;9.90;;;;;;;;;;5028978;28;20210;-74
2022/08/18 11:09:52;;;;;;;11.10;10.10;;;;;;;;;;5026303;28;20179;-74
2022/08/18 11:12:37;;;;;;;11.13;10.13;;;;;;;;;;5027451;28;20233;-74
2022/08/18 11:15:15;;;;;;;10.47;9.53;;;;;;;;;;5024509;28;20281;-74
2022/08/18 11:17:47;;;;;;;11.50;10.40;;;;;;;;;;5029268;28;20265;-73
2022/08/18 11:20:15;;;;;;;12.17;11.00;;;;;;;;;;5029018;28;20193;-73
2022/08/18 11:22:49;;;;;;;12.53;11.30;;;;;;;;;;5009462;28;20271;-73
2022/08/18 11:25:34;;;;;;;10.60;9.60;;;;;;;;;;5030920;28;20183;-73
2022/08/18 11:28:01;;;;;;;11.30;10.30;;;;;;;;;;5009571;28;20205;-73
2022/08/18 11:30:41;;;;;;;12.27;11.10;;;;;;;;;;5028225;28;20261;-73
2022/08/18 11:33:07;;;;;;;13.23;12.00;;;;;;;;;;5028336;28;20213;-73
2022/08/18 11:35:43;;;;;;;11.87;10.77;;;;;;;;;;5010687;28;20548;-74
2022/08/18 11:38:12;;;;;;;12.53;11.43;;;;;;;;;;5029300;28;20650;-73
2022/08/18 11:40:53;;;;;;;12.93;11.77;;;;;;;;;;5001875;28;20247;-81
2022/08/18 11:43:19;;;;;;;11.30;10.20;;;;;;;;;;5009005;28;20354;-74
2022/08/18 11:45:45;;;;;;;12.90;11.70;;;;;;;;;;5024954;28;20207;-77
2022/08/18 11:48:30;;;;;;;12.63;11.43;;;;;;;;;;5009294;28;20214;-78
2022/08/18 11:51:00;;;;;;;14.27;12.97;;;;;;;;;;5020532;28;20193;-76
2022/08/18 11:53:32;;;;;;;15.07;13.77;;;;;;;;;;5030143;28;20209;-75
2022/08/18 11:56:03;;;;;;;14.00;12.60;;;;;;;;;;5025034;28;20183;-75
2022/08/18 11:58:59;;;;;;;14.20;12.90;;;;;;;;;;5012177;28;20182;-76
2022/08/18 12:01:29;;;;;;;14.07;12.70;;;;;;;;;;5002081;28;20202;-76
2022/08/18 12:03:56;;;;;;;12.30;11.10;;;;;;;;;;5029529;28;20689;-75
2022/08/18 12:06:28;;;;;;;11.93;10.93;;;;;;;;;;5029083;28;20182;-77
2022/08/18 12:09:01;;;;;;;12.70;11.40;;;;;;;;;;5028019;28;20675;-75
2022/08/18 12:11:29;;;;;;;12.00;11.00;;;;;;;;;;5025183;28;20202;-75
2022/08/18 12:14:00;;;;;;;11.43;10.33;;;;;;;;;;5012377;28;20197;-75
2022/08/18 12:16:38;;;;;;;11.40;10.47;;;;;;;;;;5029637;28;20265;-76
2022/08/18 12:19:06;;;;;;;12.43;11.33;;;;;;;;;;5026571;28;20198;-76
2022/08/18 12:21:33;;;;;;;11.50;10.40;;;;;;;;;;5030888;28;20237;-75
2022/08/18 12:23:59;;;;;;;12.53;11.23;;;;;;;;;;5036839;28;20228;-77
2022/08/18 12:26:25;;;;;;;13.17;12.07;;;;;;;;;;5032534;28;20178;-75
2022/08/18 12:28:51;;;;;;;14.67;13.23;;;;;;;;;;5033049;28;20213;-75
2022/08/18 12:31:18;;;;;;;12.90;11.60;;;;;;;;;;5026983;28;20179;-75
2022/08/18 12:33:44;;;;;;;13.40;12.30;;;;;;;;;;5030287;28;20183;-75
2022/08/18 12:36:10;;;;;;;13.40;12.23;;;;;;;;;;5028146;28;20184;-75
2022/08/18 12:38:37;;;;;;;12.63;11.50;;;;;;;;;;5022955;28;20185;-73
2022/08/18 12:41:04;;;;;;;12.00;11.00;;;;;;;;;;5017981;28;20638;-73
2022/08/18 12:43:31;;;;;;;14.33;13.00;;;;;;;;;;5008848;28;20307;-73
2022/08/18 12:45:58;;;;;;;13.50;12.30;;;;;;;;;;5026611;28;20191;-73
2022/08/18 12:48:26;;;;;;;12.83;11.83;;;;;;;;;;5026796;28;20209;-73
2022/08/18 12:50:52;;;;;;;15.67;14.20;;;;;;;;;;5026732;28;20186;-73
2022/08/18 12:53:19;;;;;;;15.07;13.77;;;;;;;;;;5024036;28;20218;-73
2022/08/18 12:55:45;;;;;;;14.27;13.07;;;;;;;;;;5023907;28;20701;-72
2022/08/18 12:58:11;;;;;;;15.43;14.07;;;;;;;;;;5025889;28;20206;-72
2022/08/18 13:00:39;;;;;;;15.47;14.03;;;;;;;;;;5021393;28;20201;-73
2022/08/18 13:03:06;;;;;;;16.77;15.07;;;;;;;;;;5027986;28;20221;-72
2022/08/18 13:05:33;;;;;;;17.10;15.30;;;;;;;;;;5016630;28;20196;-72
2022/08/18 13:08:02;;;;;;;17.03;15.57;;;;;;;;;;5029647;28;20293;-72
2022/08/18 13:10:28;;;;;;;17.13;15.63;;;;;;;;;;5025160;28;20193;-72
2022/08/18 13:12:54;;;;;;;19.37;17.63;;;;;;;;;;5015954;28;20202;-73
2022/08/18 13:15:21;;;;;;;18.90;17.20;;;;;;;;;;5026917;28;20178;-73
2022/08/18 13:17:47;;;;;;;17.60;15.83;;;;;;;;;;5027754;28;20228;-73
2022/08/18 13:20:14;;;;;;;17.30;15.83;;;;;;;;;;5025976;28;20192;-73
2022/08/18 13:22:41;;;;;;;18.40;16.80;;;;;;;;;;5011864;28;20215;-73
2022/08/18 13:25:08;;;;;;;19.10;17.40;;;;;;;;;;5028254;28;20190;-73
2022/08/18 13:27:35;;;;;;;20.00;18.03;;;;;;;;;;5026531;28;20703;-73
2022/08/18 13:30:01;;;;;;;19.70;18.00;;;;;;;;;;5024345;28;20198;-73
2022/08/18 13:32:27;;;;;;;20.30;18.57;;;;;;;;;;5024765;28;20293;-72
2022/08/18 13:34:54;;;;;;;21.43;19.63;;;;;;;;;;5025494;28;20564;-73
2022/08/18 13:37:22;;;;;;;19.43;17.63;;;;;;;;;;5017188;28;20194;-73
2022/08/18 13:39:48;;;;;;;18.87;17.17;;;;;;;;;;5018109;28;20187;-73
2022/08/18 13:42:15;;;;;;;20.00;18.30;;;;;;;;;;5022546;28;20200;-73
2022/08/18 13:44:41;;;;;;;20.27;18.33;;;;;;;;;;5027890;28;20180;-72
2022/08/18 13:47:07;;;;;;;19.97;18.07;;;;;;;;;;5007996;28;20213;-73
2022/08/18 13:49:33;;;;;;;20.07;18.33;;;;;;;;;;5027867;28;20751;-73
2022/08/18 13:52:00;;;;;;;19.10;17.30;;;;;;;;;;5032946;28;20221;-73
2022/08/18 13:54:28;;;;;;;19.10;17.40;;;;;;;;;;5011118;28;20197;-73
2022/08/18 13:56:55;;;;;;;17.07;15.60;;;;;;;;;;5030388;28;20609;-73
2022/08/18 13:59:21;;;;;;;15.97;14.57;;;;;;;;;;5030396;28;20186;-73
2022/08/18 14:01:48;;;;;;;17.43;16.03;;;;;;;;;;5025349;28;20670;-74
2022/08/18 14:04:15;;;;;;;14.73;13.53;;;;;;;;;;5029346;28;20186;-73
2022/08/18 14:06:41;;;;;;;14.37;13.27;;;;;;;;;;5028209;28;20201;-73
2022/08/18 14:09:08;;;;;;;15.50;14.20;;;;;;;;;;5028997;28;20187;-73
2022/08/18 14:11:36;;;;;;;14.17;13.00;;;;;;;;;;5032011;28;20203;-74
2022/08/18 14:14:03;;;;;;;13.73;12.47;;;;;;;;;;5010934;28;20180;-73
2022/08/18 14:16:30;;;;;;;15.03;13.67;;;;;;;;;;5030527;28;20167;-73
2022/08/18 14:27:15;;;;;;;15.07;13.77;;;;;;;;;;5021212;28;20533;-73
2022/08/18 14:29:42;;;;;;;16.43;15.13;;;;;;;;;;5026127;28;20266;-73
2022/08/18 14:32:09;;;;;;;15.90;14.60;;;;;;;;;;5025474;28;20209;-73
2022/08/18 14:34:35;;;;;;;15.03;13.83;;;;;;;;;;5027138;28;20649;-73
2022/08/18 14:37:02;;;;;;;13.53;12.43;;;;;;;;;;5025949;28;20177;-73
2022/08/18 14:39:28;;;;;;;13.37;12.27;;;;;;;;;;5026329;28;20604;-73
2022/08/18 14:41:57;;;;;;;12.93;11.93;;;;;;;;;;5025981;28;20259;-73
2022/08/18 14:44:24;;;;;;;12.57;11.47;;;;;;;;;;5014078;28;20670;-73
2022/08/18 14:46:50;;;;;;;12.73;11.50;;;;;;;;;;5026037;28;20184;-73
2022/08/18 14:49:16;;;;;;;11.77;10.77;;;;;;;;;;5030273;28;20228;-73
2022/08/18 14:51:42;;;;;;;12.40;11.40;;;;;;;;;;5007508;28;20234;-72
2022/08/18 14:54:09;;;;;;;11.40;10.30;;;;;;;;;;5027425;28;20278;-73
2022/08/18 14:56:36;;;;;;;12.30;11.30;;;;;;;;;;5012868;28;20199;-73
2022/08/18 14:59:06;;;;;;;10.60;9.60;;;;;;;;;;5011322;28;20190;-73
2022/08/18 15:01:33;;;;;;;11.40;10.40;;;;;;;;;;5026081;28;20205;-73
2022/08/18 15:04:00;;;;;;;10.57;9.77;;;;;;;;;;5029422;28;20185;-74
2022/08/18 15:06:26;;;;;;;10.57;9.67;;;;;;;;;;5027109;28;20182;-73
2022/08/18 15:08:52;;;;;;;9.90;9.10;;;;;;;;;;5020025;28;20259;-73
2022/08/18 15:11:18;;;;;;;11.20;10.20;;;;;;;;;;5025730;28;20264;-74